Time;durP1;ratioP1;P1;durP2;ratioP2;P2;SDS_P1;SDS_P2;PMS_P1;PMS_P2;Temp;Humidity;BMP_temperature;BMP_pressure;BME280_temperature;BME280_humidity;BME280_pressure;Samples;Min_cycle;Max_cycle;Signal;HPM_P1;HPM_P2
2023/10/09 00:03:00;;;;;;;1.85;1.75;;;11.50;99.90;;;;;;6219777;23;20158;-82
2023/10/09 00:08:21;;;;;;;3.40;1.80;;;11.50;99.90;;;;;;6219768;23;20648;-82
2023/10/09 00:10:53;;;;;;;4.03;2.33;;;11.40;99.90;;;;;;6219255;23;20166;-82
2023/10/09 00:13:32;;;;;;;2.00;1.70;;;11.40;99.90;;;;;;6243177;23;20146;-82
2023/10/09 00:16:08;;;;;;;2.63;1.73;;;11.40;99.90;;;;;;6242874;23;20150;-82
2023/10/09 00:18:34;;;;;;;2.08;1.98;;;11.40;99.90;;;;;;6244042;23;20149;-82
2023/10/09 00:21:11;;;;;;;2.13;2.00;;;11.40;99.90;;;;;;6242673;23;20158;-82
2023/10/09 00:23:37;;;;;;;3.00;2.10;;;11.40;99.90;;;;;;6243796;23;20153;-82
2023/10/09 00:26:11;;;;;;;2.53;2.30;;;11.40;99.90;;;;;;6243152;23;20158;-82
2023/10/09 00:28:44;;;;;;;2.78;2.00;;;11.40;99.90;;;;;;6243266;23;20174;-82
2023/10/09 00:31:15;;;;;;;1.98;1.63;;;11.40;99.90;;;;;;6243696;23;20215;-82
2023/10/09 00:33:42;;;;;;;1.83;1.73;;;11.40;99.90;;;;;;6243919;23;20229;-82
2023/10/09 00:36:10;;;;;;;2.08;1.98;;;11.40;99.90;;;;;;6242518;23;20208;-82
2023/10/09 00:38:46;;;;;;;2.10;1.90;;;11.40;99.90;;;;;;6243450;23;20193;-82
2023/10/09 00:41:19;;;;;;;1.95;1.75;;;11.30;99.90;;;;;;6219069;23;20146;-82
2023/10/09 00:43:45;;;;;;;2.40;1.90;;;11.30;99.90;;;;;;6242666;23;20177;-82
2023/10/09 00:46:47;;;;;;;1.90;1.80;;;11.30;99.90;;;;;;6242268;23;20165;-82
2023/10/09 00:49:02;;;;;;;2.58;2.10;;;11.30;99.90;;;;;;6217000;23;20174;-82
2023/10/09 00:51:35;;;;;;;2.13;2.03;;;11.30;99.90;;;;;;6242870;23;20261;-82
2023/10/09 00:54:07;;;;;;;2.63;1.90;;;11.30;99.90;;;;;;6242954;23;20149;-82
2023/10/09 00:56:39;;;;;;;3.20;2.20;;;11.30;99.90;;;;;;6242646;22;20253;-82
2023/10/09 00:59:14;;;;;;;2.08;1.88;;;11.40;99.90;;;;;;6243882;23;20147;-82
2023/10/09 01:21:43;;;;;;;2.90;2.15;;;10.90;99.90;;;;;;6277862;22;20578;-73
2023/10/09 01:24:08;;;;;;;3.45;2.38;;;10.80;99.90;;;;;;6250637;22;20156;-74
2023/10/09 01:26:44;;;;;;;2.60;2.40;;;10.70;99.90;;;;;;6250727;22;20180;-74
2023/10/09 01:29:16;;;;;;;2.45;2.25;;;10.70;99.90;;;;;;6250578;22;20157;-74
2023/10/09 01:31:52;;;;;;;2.53;2.33;;;10.70;99.90;;;;;;6250872;22;20191;-74
2023/10/09 01:34:24;;;;;;;3.90;2.83;;;10.70;99.90;;;;;;6250475;22;20223;-74
2023/10/09 01:36:53;;;;;;;2.95;2.58;;;10.60;99.90;;;;;;6250375;22;20173;-74
2023/10/09 01:39:42;;;;;;;3.65;2.60;;;10.60;99.90;;;;;;6250371;22;20157;-74
2023/10/09 01:42:09;;;;;;;4.80;2.80;;;10.50;99.90;;;;;;6250490;22;20137;-74
2023/10/09 01:44:35;;;;;;;3.05;2.65;;;10.40;99.90;;;;;;6250758;22;20160;-74
2023/10/09 01:47:07;;;;;;;2.60;2.47;;;10.40;99.90;;;;;;6250661;22;20200;-73
2023/10/09 01:49:43;;;;;;;4.60;2.83;;;10.30;99.90;;;;;;6250226;22;20240;-73
2023/10/09 01:52:16;;;;;;;4.50;3.17;;;10.20;99.90;;;;;;6251396;22;20224;-74
2023/10/09 01:54:49;;;;;;;3.08;2.83;;;10.10;99.90;;;;;;6250398;22;20195;-74
2023/10/09 01:57:21;;;;;;;5.28;2.55;;;10.10;99.90;;;;;;6250197;22;20185;-74
2023/10/09 01:59:49;;;;;;;4.95;2.97;;;10.00;99.90;;;;;;6250384;22;20145;-74
2023/10/09 02:02:25;;;;;;;3.38;2.90;;;10.00;99.90;;;;;;6251307;22;20511;-73
2023/10/09 02:25:22;;;;;;;4.05;3.08;;;9.70;99.90;;;;;;6062496;23;20160;-74
2023/10/09 02:27:54;;;;;;;4.97;2.88;;;9.70;99.90;;;;;;6066979;23;20386;-74
2023/10/09 02:30:28;;;;;;;2.88;2.58;;;9.70;99.90;;;;;;6042410;23;20217;-74
2023/10/09 02:33:06;;;;;;;3.15;2.95;;;9.70;99.90;;;;;;6139212;23;20150;-74
2023/10/09 02:41:49;;;;;;;5.18;2.92;;;9.70;99.90;;;;;;6216044;23;20212;-74
2023/10/09 02:44:15;;;;;;;5.03;3.03;;;9.70;99.90;;;;;;6214381;23;20292;-74
2023/10/09 02:46:44;;;;;;;4.53;3.63;;;9.70;99.90;;;;;;6214624;23;20174;-74
2023/10/09 02:49:15;;;;;;;3.92;3.33;;;9.70;99.90;;;;;;6214493;23;20155;-74
2023/10/09 02:51:44;;;;;;;5.22;3.05;;;9.70;99.90;;;;;;6215431;23;20245;-74
2023/10/09 02:54:34;;;;;;;5.30;3.20;;;9.80;99.90;;;;;;6189719;23;20165;-74
2023/10/09 03:00:36;;;;;;;11.68;4.72;;;9.80;99.90;;;;;;6246304;23;20149;-74
2023/10/09 03:03:04;;;;;;;10.77;4.75;;;9.80;99.90;;;;;;6246654;23;20141;-74
2023/10/09 03:05:30;;;;;;;43.20;5.13;;;9.90;99.90;;;;;;6219161;22;20154;-74
2023/10/09 03:07:56;;;;;;;8.23;4.80;;;9.90;99.90;;;;;;6246249;23;20200;-74
2023/10/09 03:10:23;;;;;;;18.48;5.45;;;9.90;99.90;;;;;;6219290;23;20181;-74
2023/10/09 03:12:53;;;;;;;72.65;7.97;;;9.80;99.90;;;;;;6244658;23;20593;-74
2023/10/09 03:15:22;;;;;;;103.85;7.63;;;9.80;99.90;;;;;;6244685;23;20175;-74
2023/10/09 03:17:48;;;;;;;18.38;7.05;;;9.70;99.90;;;;;;6244733;22;20158;-74
2023/10/09 03:20:17;;;;;;;10.13;7.05;;;9.60;99.90;;;;;;6244690;23;20236;-74
2023/10/09 03:22:44;;;;;;;11.68;6.95;;;9.70;99.90;;;;;;6245083;23;20161;-74
2023/10/09 03:25:16;;;;;;;13.45;7.15;;;9.80;99.90;;;;;;6246166;23;20220;-74
2023/10/09 03:27:46;;;;;;;22.40;7.30;;;9.90;99.90;;;;;;6246353;22;20248;-74
2023/10/09 03:30:22;;;;;;;6.70;5.57;;;10.00;99.90;;;;;;6246474;23;20185;-73
2023/10/09 03:32:50;;;;;;;14.70;5.78;;;10.00;99.90;;;;;;6246753;23;20501;-73
2023/10/09 03:35:23;;;;;;;22.90;7.10;;;10.00;99.90;;;;;;6246996;23;20594;-73
2023/10/09 03:37:56;;;;;;;131.95;7.82;;;10.00;99.90;;;;;;6246672;23;20161;-73
2023/10/09 03:40:23;;;;;;;24.20;6.10;;;9.90;99.90;;;;;;6247597;23;20150;-73
2023/10/09 03:42:48;;;;;;;66.40;7.05;;;9.90;99.90;;;;;;6246470;23;20161;-73
2023/10/09 03:45:26;;;;;;;24.80;7.68;;;10.00;99.90;;;;;;6248415;23;20156;-73
2023/10/09 03:48:01;;;;;;;70.25;7.13;;;10.00;99.90;;;;;;6221157;23;20149;-73
2023/10/09 03:50:30;;;;;;;322.95;11.70;;;10.10;99.90;;;;;;6247064;23;20172;-73
2023/10/09 03:52:55;;;;;;;48.33;7.90;;;10.10;99.90;;;;;;6246217;22;20157;-73
2023/10/09 03:55:27;;;;;;;88.63;8.65;;;10.10;99.90;;;;;;6221008;23;20153;-73
2023/10/09 03:57:53;;;;;;;178.32;9.23;;;10.20;99.90;;;;;;6247024;23;20169;-73
2023/10/09 04:00:26;;;;;;;116.82;11.10;;;10.10;99.90;;;;;;6247433;22;20168;-73
2023/10/09 04:02:52;;;;;;;161.48;33.40;;;10.10;99.90;;;;;;6248564;23;20507;-73
2023/10/09 04:05:18;;;;;;;162.18;45.35;;;10.00;99.90;;;;;;6246181;23;20207;-73
2023/10/09 04:07:43;;;;;;;108.88;15.82;;;10.00;99.90;;;;;;6220994;23;20272;-73
2023/10/09 04:12:53;;;;;;;209.63;14.07;;;9.80;99.90;;;;;;6247935;23;20145;-74
2023/10/09 04:15:23;;;;;;;92.82;6.20;;;9.70;99.90;;;;;;6248095;23;20154;-74
2023/10/09 04:17:51;;;;;;;23.05;7.03;;;9.60;99.90;;;;;;6247876;22;20158;-73
2023/10/09 04:22:59;;;;;;;68.18;5.28;;;9.60;99.90;;;;;;6248183;23;20245;-73
2023/10/09 04:25:25;;;;;;;74.68;6.28;;;9.50;99.90;;;;;;6245983;22;20226;-73
2023/10/09 04:30:43;;;;;;;17.33;4.93;;;9.20;99.90;;;;;;6247934;23;20173;-73
2023/10/09 04:41:51;;;;;;;5.43;4.55;;;9.20;99.90;;;;;;6257937;23;20212;-74
2023/10/09 04:46:44;;;;;;;5.55;4.90;;;9.30;99.90;;;;;;6247971;22;20633;-74
2023/10/09 04:49:27;;;;;;;7.88;5.40;;;9.30;99.90;;;;;;6245991;23;20158;-74
2023/10/09 04:52:06;;;;;;;6.53;5.80;;;9.40;99.90;;;;;;6220555;23;20156;-75
2023/10/09 04:55:02;;;;;;;5.35;4.85;;;9.30;99.90;;;;;;6220123;23;20142;-75
2023/10/09 04:57:26;;;;;;;5.45;4.47;;;9.30;99.90;;;;;;6246622;22;20196;-74
2023/10/09 04:59:51;;;;;;;8.75;6.97;;;9.50;99.90;;;;;;6245391;23;20153;-74
2023/10/09 05:02:19;;;;;;;8.98;7.18;;;9.40;99.90;;;;;;6247520;23;20160;-74
2023/10/09 05:05:01;;;;;;;22.70;13.38;;;9.50;99.90;;;;;;6247094;23;20150;-74
2023/10/09 05:07:54;;;;;;;17.52;14.55;;;9.50;99.90;;;;;;6220656;23;20178;-74
2023/10/09 05:16:07;;;;;;;6.72;6.03;;;9.60;99.90;;;;;;6254712;22;20230;-74
2023/10/09 05:18:36;;;;;;;6.57;5.60;;;9.60;99.90;;;;;;6245608;23;20517;-74
2023/10/09 05:24:16;;;;;;;8.20;4.68;;;9.70;99.90;;;;;;6247183;23;20231;-74
2023/10/09 05:32:27;;;;;;;7.75;5.78;;;9.70;99.90;;;;;;6257497;23;20160;-74
2023/10/09 05:47:37;;;;;;;7.30;5.90;;;9.80;99.90;;;;;;6277335;22;20190;-73
2023/10/09 05:55:27;;;;;;;6.75;6.07;;;10.00;99.90;;;;;;6278233;22;20164;-74
2023/10/09 06:06:02;;;;;;;11.20;8.02;;;10.00;99.90;;;;;;6286548;22;20198;-74
2023/10/09 06:16:43;;;;;;;11.23;9.30;;;10.30;99.90;;;;;;6276666;22;20234;-84
2023/10/09 06:19:25;;;;;;;10.10;7.40;;;10.30;99.90;;;;;;6277600;22;20202;-84
2023/10/09 06:25:08;;;;;;;8.00;6.40;;;10.30;99.90;;;;;;6277586;22;20318;-84
2023/10/09 06:27:13;;;;;;;8.63;7.60;;;10.30;99.90;;;;;;6262035;22;20279;-84
2023/10/09 06:34:57;;;;;;;9.48;6.50;;;10.80;99.90;;;;;;6287183;22;20137;-84
2023/10/09 06:45:14;;;;;;;15.45;13.85;;;11.10;99.90;;;;;;6287126;22;20143;-84
2023/10/09 06:47:41;;;;;;;8.88;6.90;;;11.20;99.90;;;;;;6249818;22;20141;-84
2023/10/09 06:52:57;;;;;;;9.02;7.13;;;11.20;99.90;;;;;;6287276;22;20137;-83
2023/10/09 06:55:35;;;;;;;7.70;6.53;;;11.30;99.90;;;;;;6250802;22;20630;-83
2023/10/09 06:58:01;;;;;;;8.73;7.00;;;11.30;99.90;;;;;;6249709;22;20182;-85
2023/10/09 07:03:17;;;;;;;11.52;10.43;;;11.40;99.90;;;;;;6276871;22;20144;-84
2023/10/09 07:08:37;;;;;;;24.30;19.23;;;11.60;99.90;;;;;;6230290;22;20635;-85
2023/10/09 07:11:57;;;;;;;15.25;13.75;;;11.70;99.90;;;;;;6249950;22;20184;-85
2023/10/09 07:17:26;;;;;;;11.10;9.90;;;12.00;99.90;;;;;;6214037;22;20176;-85
2023/10/09 07:22:29;;;;;;;16.30;11.57;;;12.10;99.90;;;;;;6277470;22;20183;-85
2023/10/09 07:27:46;;;;;;;13.10;9.93;;;12.20;99.90;;;;;;6277649;22;20153;-85
2023/10/09 07:33:30;;;;;;;12.98;10.52;;;12.30;99.90;;;;;;6287629;22;20156;-84
2023/10/09 07:35:59;;;;;;;9.88;8.40;;;12.30;99.90;;;;;;6250608;22;20599;-84
2023/10/09 07:38:35;;;;;;;14.73;10.50;;;12.40;99.90;;;;;;6249134;22;20177;-84
2023/10/09 07:43:35;;;;;;;14.77;9.23;;;12.40;99.90;;;;;;6276997;22;20164;-84
2023/10/09 07:48:52;;;;;;;10.90;8.25;;;12.60;99.90;;;;;;6284190;22;20172;-84
2023/10/09 07:51:31;;;;;;;8.57;7.68;;;12.60;99.90;;;;;;6250400;22;20235;-84
2023/10/09 07:54:06;;;;;;;12.20;7.65;;;12.70;99.90;;;;;;6250521;22;20191;-84
2023/10/09 07:56:38;;;;;;;13.07;9.20;;;12.80;99.90;;;;;;6250191;22;20212;-84
2023/10/09 07:59:10;;;;;;;9.90;7.30;;;12.90;99.90;;;;;;6249347;22;20252;-84
2023/10/09 08:01:52;;;;;;;13.10;7.60;;;13.00;99.90;;;;;;6274962;22;20180;-84
2023/10/09 08:04:47;;;;;;;9.18;7.88;;;13.10;99.90;;;;;;6274902;22;20210;-84
2023/10/09 08:07:25;;;;;;;10.45;7.80;;;13.20;99.90;;;;;;6249749;22;20207;-84
2023/10/09 08:17:58;;;;;;;9.82;6.30;;;13.80;99.90;;;;;;6279078;22;20176;-84
2023/10/09 08:20:36;;;;;;;10.45;6.75;;;13.90;99.90;;;;;;6251745;22;20148;-84
2023/10/09 08:23:04;;;;;;;9.40;6.28;;;14.00;99.90;;;;;;6251102;22;20155;-84
2023/10/09 08:25:33;;;;;;;12.88;6.05;;;14.10;99.90;;;;;;6278032;22;20187;-84
2023/10/09 08:35:55;;;;;;;12.10;5.78;;;14.00;99.90;;;;;;6288616;22;20183;-84
2023/10/09 08:38:23;;;;;;;10.82;5.82;;;14.00;99.90;;;;;;6250651;22;20231;-85
2023/10/09 08:40:50;;;;;;;9.75;5.88;;;14.00;99.90;;;;;;6250750;22;20161;-84
2023/10/09 08:43:20;;;;;;;8.85;5.82;;;13.90;99.90;;;;;;6251117;22;20603;-84
2023/10/09 08:45:53;;;;;;;7.22;6.28;;;14.00;99.90;;;;;;6278300;22;20159;-84
2023/10/09 08:48:21;;;;;;;9.70;6.13;;;14.00;99.90;;;;;;6251700;22;20176;-85
2023/10/09 08:50:54;;;;;;;8.77;6.93;;;13.90;99.90;;;;;;6251044;22;20236;-85
2023/10/09 08:53:20;;;;;;;10.82;6.47;;;14.00;99.90;;;;;;6250865;22;20148;-84
2023/10/09 08:55:46;;;;;;;12.13;6.50;;;14.00;99.90;;;;;;6251039;22;20240;-84
2023/10/09 08:58:36;;;;;;;9.48;6.22;;;14.00;99.90;;;;;;6251511;22;20198;-84
2023/10/09 09:01:02;;;;;;;7.50;5.82;;;14.00;99.90;;;;;;6250710;22;20233;-84
2023/10/09 09:03:43;;;;;;;9.13;6.32;;;14.00;99.90;;;;;;6251106;22;20192;-84
2023/10/09 09:06:13;;;;;;;8.35;5.78;;;14.00;99.90;;;;;;6251198;22;20231;-84
2023/10/09 09:08:40;;;;;;;11.10;6.35;;;14.10;99.90;;;;;;6251673;22;20260;-84
2023/10/09 09:11:12;;;;;;;16.48;14.70;;;14.10;99.90;;;;;;6250571;22;20183;-84
2023/10/09 09:14:04;;;;;;;15.65;9.00;;;14.10;99.90;;;;;;6250612;22;20156;-84
2023/10/09 09:16:31;;;;;;;26.85;20.60;;;14.20;99.90;;;;;;6250804;22;20180;-84
2023/10/09 09:21:42;;;;;;;8.55;5.70;;;14.60;99.90;;;;;;6277829;22;20151;-85
2023/10/09 09:26:59;;;;;;;7.93;5.53;;;15.00;99.90;;;;;;6287893;22;20187;-84
2023/10/09 09:29:48;;;;;;;10.98;5.53;;;15.20;99.90;;;;;;6251624;22;20537;-85
2023/10/09 09:32:20;;;;;;;11.65;6.05;;;15.20;99.90;;;;;;6275881;22;20160;-85
2023/10/09 09:35:06;;;;;;;7.10;5.65;;;15.20;99.90;;;;;;6277528;22;20129;-85
2023/10/09 09:43:21;;;;;;;8.02;5.53;;;15.50;99.90;;;;;;6277760;22;20189;-84
2023/10/09 09:45:49;;;;;;;5.90;4.97;;;15.70;99.90;;;;;;6250707;22;20145;-84
2023/10/09 09:48:16;;;;;;;7.25;5.43;;;15.80;99.90;;;;;;6250472;22;20564;-84
2023/10/09 09:50:46;;;;;;;8.48;5.97;;;15.90;99.90;;;;;;6250476;22;20253;-84
2023/10/09 09:53:19;;;;;;;6.90;5.22;;;15.90;99.90;;;;;;6250270;22;20141;-84
2023/10/09 09:55:51;;;;;;;10.27;5.75;;;16.00;99.90;;;;;;6253202;22;20172;-84
2023/10/09 09:58:23;;;;;;;7.68;5.68;;;16.20;99.90;;;;;;6250935;22;20172;-84
2023/10/09 10:00:53;;;;;;;8.35;5.55;;;16.30;99.90;;;;;;6277099;22;20221;-84
2023/10/09 10:03:23;;;;;;;7.90;5.55;;;16.50;99.90;;;;;;6276964;22;20168;-84
2023/10/09 10:05:51;;;;;;;7.28;5.45;;;16.60;99.90;;;;;;6250002;22;20149;-84
2023/10/09 10:08:21;;;;;;;7.70;5.15;;;16.70;99.90;;;;;;6250531;22;20230;-84
2023/10/09 10:10:52;;;;;;;11.25;6.68;;;16.90;99.90;;;;;;6250736;22;20184;-84
2023/10/09 10:13:27;;;;;;;8.80;6.72;;;17.00;99.90;;;;;;6250308;22;20169;-84
2023/10/09 10:15:57;;;;;;;8.50;7.30;;;17.10;99.90;;;;;;6249762;22;20215;-84
2023/10/09 10:18:24;;;;;;;8.77;5.80;;;17.00;99.90;;;;;;6249692;22;20180;-84
2023/10/09 10:21:17;;;;;;;10.82;6.25;;;17.00;99.90;;;;;;6250233;22;20180;-84
2023/10/09 10:23:47;;;;;;;9.98;6.50;;;16.90;99.90;;;;;;6251163;22;20171;-84
2023/10/09 10:26:26;;;;;;;10.63;5.93;;;16.80;99.90;;;;;;6276819;22;20152;-84
2023/10/09 10:29:26;;;;;;;7.28;6.40;;;16.90;99.90;;;;;;6249713;22;20199;-84
2023/10/09 10:31:54;;;;;;;10.38;5.30;;;16.80;99.90;;;;;;6201570;22;20279;-84
2023/10/09 10:34:23;;;;;;;10.77;6.75;;;16.70;99.90;;;;;;6251166;22;20160;-84
2023/10/09 10:36:52;;;;;;;8.02;5.70;;;16.60;99.90;;;;;;6249820;22;20161;-84
2023/10/09 10:39:21;;;;;;;8.63;5.78;;;16.70;99.90;;;;;;6249155;22;20177;-84
2023/10/09 10:41:54;;;;;;;9.32;6.53;;;16.80;99.90;;;;;;6249685;22;20206;-84
2023/10/09 10:44:33;;;;;;;9.57;5.82;;;16.90;99.90;;;;;;6250081;22;20153;-84
2023/10/09 10:46:59;;;;;;;11.13;5.82;;;16.90;99.90;;;;;;6249934;22;20153;-84
2023/10/09 10:49:26;;;;;;;8.75;5.55;;;17.00;99.90;;;;;;6249548;22;20222;-84
2023/10/09 10:57:01;;;;;;;10.02;5.65;;;17.10;99.90;;;;;;6277367;22;20153;-84
2023/10/09 10:59:36;;;;;;;9.40;5.97;;;17.30;99.90;;;;;;6276508;22;20611;-84
2023/10/09 11:18:46;;;;;;;8.38;5.18;;;17.60;99.90;;;;;;6225142;22;20238;-84
2023/10/09 11:23:57;;;;;;;8.52;5.38;;;17.40;99.90;;;;;;6276956;22;20160;-84
2023/10/09 11:26:28;;;;;;;7.60;5.53;;;17.40;99.90;;;;;;6250508;22;20145;-84
2023/10/09 11:29:23;;;;;;;8.82;5.38;;;17.30;99.90;;;;;;6276833;22;20179;-84
2023/10/09 11:32:18;;;;;;;10.05;5.70;;;17.30;99.90;;;;;;6274868;22;20188;-84
2023/10/09 11:34:53;;;;;;;8.90;5.57;;;17.30;99.90;;;;;;6250726;22;20148;-84
2023/10/09 11:39:56;;;;;;;8.18;6.00;;;17.30;99.90;;;;;;6278426;22;20172;-84
2023/10/09 11:42:37;;;;;;;10.45;5.97;;;17.40;99.90;;;;;;6249691;22;20153;-84
2023/10/09 11:45:24;;;;;;;8.13;5.32;;;17.40;99.90;;;;;;6250551;22;20215;-84
2023/10/09 11:47:58;;;;;;;11.63;5.50;;;17.60;99.90;;;;;;6249321;22;20145;-84
2023/10/09 11:50:53;;;;;;;12.80;5.40;;;17.80;99.90;;;;;;6251507;22;20517;-84
2023/10/09 11:53:33;;;;;;;9.18;5.85;;;18.00;99.90;;;;;;6253942;22;20168;-84
2023/10/09 11:55:59;;;;;;;8.13;5.45;;;18.10;99.90;;;;;;6251726;22;20145;-84
2023/10/09 11:58:25;;;;;;;8.40;5.82;;;18.10;99.90;;;;;;6252047;22;20177;-84
2023/10/09 12:01:42;;;;;;;12.90;5.40;;;18.20;99.90;;;;;;6251307;22;20634;-84
2023/10/09 12:03:49;;;;;;;10.27;5.50;;;18.30;99.90;;;;;;6262918;22;20217;-84
2023/10/09 12:06:18;;;;;;;8.13;5.68;;;18.40;99.90;;;;;;6279282;22;20141;-85
2023/10/09 12:08:47;;;;;;;13.20;5.88;;;18.30;99.90;;;;;;6251423;22;20177;-84
2023/10/09 12:11:14;;;;;;;7.07;5.22;;;18.30;99.90;;;;;;6251569;22;20518;-84
2023/10/09 12:13:43;;;;;;;7.22;5.30;;;18.40;99.90;;;;;;6251345;22;20157;-84
2023/10/09 12:16:09;;;;;;;11.68;6.38;;;18.40;99.90;;;;;;6251174;22;20177;-84
2023/10/09 12:18:36;;;;;;;9.50;5.80;;;18.40;99.90;;;;;;6251105;22;20180;-84
2023/10/09 12:21:04;;;;;;;12.13;5.72;;;18.40;99.90;;;;;;6251262;22;20202;-84
2023/10/09 12:23:35;;;;;;;7.28;5.55;;;18.30;99.90;;;;;;6278892;22;20232;-85
2023/10/09 12:26:01;;;;;;;6.35;5.35;;;18.30;99.90;;;;;;6252658;22;20149;-85
2023/10/09 12:28:28;;;;;;;8.60;5.78;;;18.30;99.90;;;;;;6252201;22;20188;-84
2023/10/09 12:30:53;;;;;;;10.80;5.60;;;18.20;99.90;;;;;;6252002;22;20218;-84
2023/10/09 12:33:27;;;;;;;10.38;5.28;;;18.10;99.90;;;;;;6278263;22;20582;-84
2023/10/09 12:35:59;;;;;;;11.43;5.88;;;18.20;99.90;;;;;;6252003;22;20173;-84
2023/10/09 12:38:32;;;;;;;6.70;4.97;;;18.20;99.90;;;;;;6251977;22;20252;-84
2023/10/09 12:41:18;;;;;;;10.93;5.68;;;18.10;99.90;;;;;;6251930;22;20223;-84
2023/10/09 12:43:43;;;;;;;7.35;5.22;;;18.20;99.90;;;;;;6251854;22;20148;-84
2023/10/09 12:46:16;;;;;;;9.27;5.68;;;18.30;99.90;;;;;;6251358;22;20164;-84
2023/10/09 12:48:47;;;;;;;7.90;5.32;;;18.30;99.90;;;;;;6250817;22;20526;-84
2023/10/09 12:51:16;;;;;;;9.63;5.55;;;18.30;99.90;;;;;;6251389;22;20623;-84
2023/10/09 12:53:48;;;;;;;8.27;5.45;;;18.20;99.90;;;;;;6251491;22;20232;-85
2023/10/09 12:56:18;;;;;;;10.13;5.75;;;18.30;99.90;;;;;;6252269;22;20256;-85
2023/10/09 12:58:52;;;;;;;9.80;5.97;;;18.30;99.90;;;;;;6252064;22;20173;-85
2023/10/09 13:01:20;;;;;;;10.15;5.57;;;18.30;99.90;;;;;;6251754;22;20501;-85
2023/10/09 13:03:49;;;;;;;10.82;5.65;;;18.30;99.90;;;;;;6250790;22;20164;-85
2023/10/09 13:06:15;;;;;;;9.30;5.72;;;18.30;99.90;;;;;;6251338;22;20161;-85
2023/10/09 13:08:42;;;;;;;9.10;5.63;;;18.30;99.90;;;;;;6251473;22;20184;-85
2023/10/09 13:11:11;;;;;;;8.52;5.43;;;18.20;99.90;;;;;;6250352;22;20191;-85
2023/10/09 13:13:46;;;;;;;11.35;5.88;;;18.10;99.90;;;;;;6251020;22;20185;-85
2023/10/09 13:16:23;;;;;;;8.32;5.68;;;18.00;99.90;;;;;;6251343;22;20168;-85
2023/10/09 13:18:56;;;;;;;10.95;5.60;;;18.00;99.90;;;;;;6250996;22;20206;-85
2023/10/09 13:21:26;;;;;;;11.05;5.75;;;17.90;99.90;;;;;;6250603;22;20153;-85
2023/10/09 13:23:54;;;;;;;10.48;5.60;;;17.80;99.90;;;;;;6250732;22;20185;-85
2023/10/09 13:26:28;;;;;;;8.30;5.50;;;17.80;99.90;;;;;;6277756;22;20157;-85
2023/10/09 13:28:54;;;;;;;8.95;5.40;;;17.80;99.90;;;;;;6250358;22;20181;-85
2023/10/09 13:31:21;;;;;;;8.27;5.40;;;17.60;99.90;;;;;;6250578;22;20635;-85
2023/10/09 13:33:48;;;;;;;10.57;5.53;;;17.60;99.90;;;;;;6277659;22;20245;-85
2023/10/09 13:36:19;;;;;;;8.10;5.60;;;17.60;99.90;;;;;;6250459;22;20163;-85
2023/10/09 13:38:45;;;;;;;6.30;5.30;;;17.50;99.90;;;;;;6251401;22;20232;-85
2023/10/09 13:41:15;;;;;;;9.50;5.45;;;17.50;99.90;;;;;;6250301;22;20159;-85
2023/10/09 13:43:40;;;;;;;11.68;5.30;;;17.40;99.90;;;;;;6250253;22;20157;-85
2023/10/09 13:46:08;;;;;;;12.48;5.55;;;17.40;99.90;;;;;;6277404;22;20145;-85
2023/10/09 13:48:41;;;;;;;9.15;5.88;;;17.40;99.90;;;;;;6250252;22;20177;-85
2023/10/09 13:51:23;;;;;;;10.70;5.43;;;17.30;99.90;;;;;;6251349;22;20181;-85
2023/10/09 13:53:49;;;;;;;8.68;5.55;;;17.20;99.90;;;;;;6251141;22;20571;-85
2023/10/09 13:56:19;;;;;;;14.43;6.20;;;17.20;99.90;;;;;;6250268;22;20160;-85
2023/10/09 13:58:50;;;;;;;11.50;6.25;;;17.20;99.90;;;;;;6250114;22;20522;-85
2023/10/09 14:01:28;;;;;;;8.20;5.68;;;17.20;99.90;;;;;;6251917;22;20195;-85
2023/10/09 14:03:59;;;;;;;9.52;5.93;;;17.20;99.90;;;;;;6250610;22;20588;-85
2023/10/09 14:06:33;;;;;;;13.48;6.53;;;17.10;99.90;;;;;;6251065;22;20212;-84
2023/10/09 14:09:04;;;;;;;11.00;5.72;;;17.10;99.90;;;;;;6276156;22;20203;-85
2023/10/09 14:11:31;;;;;;;12.18;6.30;;;17.00;99.90;;;;;;6251442;22;20179;-84
2023/10/09 14:13:59;;;;;;;7.97;5.85;;;17.00;99.90;;;;;;6277623;22;20134;-84
2023/10/09 14:16:28;;;;;;;11.23;5.65;;;17.00;99.90;;;;;;6250249;22;20176;-84
2023/10/09 14:18:57;;;;;;;9.68;5.63;;;17.00;99.90;;;;;;6249831;22;20231;-84
2023/10/09 14:21:32;;;;;;;11.00;5.72;;;17.10;99.90;;;;;;6250576;22;20157;-84
2023/10/09 14:23:59;;;;;;;10.77;6.00;;;17.10;99.90;;;;;;6250229;22;20187;-84
2023/10/09 14:26:29;;;;;;;9.00;5.72;;;17.20;99.90;;;;;;6250015;22;20164;-84
2023/10/09 14:28:56;;;;;;;10.35;6.05;;;17.10;99.90;;;;;;6250847;22;20177;-85
2023/10/09 14:31:27;;;;;;;10.32;6.13;;;17.10;99.90;;;;;;6249843;22;20534;-84
2023/10/09 14:33:54;;;;;;;13.13;5.93;;;17.00;99.90;;;;;;6277253;22;20153;-85
2023/10/09 14:36:22;;;;;;;11.63;6.55;;;17.00;99.90;;;;;;6250325;22;20594;-84
2023/10/09 14:38:52;;;;;;;8.63;5.70;;;17.00;99.90;;;;;;6250046;22;20176;-85
2023/10/09 14:41:21;;;;;;;11.88;6.25;;;17.00;99.90;;;;;;6250982;22;20571;-84
2023/10/09 14:43:48;;;;;;;13.65;5.97;;;17.00;99.90;;;;;;6250115;22;20160;-84
2023/10/09 14:46:14;;;;;;;12.43;6.10;;;16.90;99.90;;;;;;6250208;22;20484;-84
2023/10/09 14:48:41;;;;;;;13.38;6.32;;;16.90;99.90;;;;;;6250188;22;20181;-85
2023/10/09 14:51:10;;;;;;;8.60;5.70;;;16.90;99.90;;;;;;6276865;22;20204;-85
2023/10/09 14:53:36;;;;;;;10.68;6.20;;;16.90;99.90;;;;;;6277553;22;20259;-84
2023/10/09 14:56:08;;;;;;;10.10;5.30;;;16.90;99.90;;;;;;6226101;22;20184;-84
2023/10/09 14:58:34;;;;;;;11.32;5.82;;;16.90;99.90;;;;;;6249820;22;20173;-84
2023/10/09 15:01:12;;;;;;;13.35;5.60;;;16.80;99.90;;;;;;6250773;22;20183;-84
2023/10/09 15:03:38;;;;;;;9.30;5.68;;;16.80;99.90;;;;;;6250766;22;20156;-84
2023/10/09 15:06:08;;;;;;;12.75;6.03;;;16.80;99.90;;;;;;6277009;22;20156;-84
2023/10/09 15:08:34;;;;;;;9.98;5.47;;;16.70;99.90;;;;;;6250665;22;20607;-84
2023/10/09 15:11:00;;;;;;;8.95;5.47;;;16.70;99.90;;;;;;6249707;22;20181;-84
2023/10/09 15:13:28;;;;;;;7.82;5.80;;;16.70;99.90;;;;;;6251115;22;20210;-84
2023/10/09 15:15:55;;;;;;;12.13;5.85;;;16.60;99.90;;;;;;6249612;22;20165;-85
2023/10/09 15:18:21;;;;;;;10.02;5.65;;;16.60;99.90;;;;;;6250170;22;20173;-85
2023/10/09 15:20:48;;;;;;;8.77;5.57;;;16.60;99.90;;;;;;6250978;22;20476;-84
2023/10/09 15:23:14;;;;;;;10.23;5.43;;;16.50;99.90;;;;;;6249884;22;20480;-85
2023/10/09 15:25:42;;;;;;;9.10;6.30;;;16.50;99.90;;;;;;6250748;22;20169;-85
2023/10/09 15:28:09;;;;;;;10.85;6.03;;;16.50;99.90;;;;;;6251849;22;20156;-85
2023/10/09 15:30:37;;;;;;;10.15;5.47;;;16.40;99.90;;;;;;6252741;22;20216;-84
2023/10/09 15:33:08;;;;;;;12.02;5.60;;;16.40;99.90;;;;;;6253014;22;20203;-84
2023/10/09 15:35:34;;;;;;;9.55;6.15;;;16.40;99.90;;;;;;6277557;22;20156;-85
2023/10/09 15:38:03;;;;;;;11.57;6.30;;;16.40;99.90;;;;;;6278832;22;20133;-84
2023/10/09 15:40:34;;;;;;;8.98;5.95;;;16.40;99.90;;;;;;6251427;22;20184;-84
2023/10/09 15:43:00;;;;;;;7.40;5.40;;;16.30;99.90;;;;;;6251781;22;20156;-84
2023/10/09 15:45:29;;;;;;;9.40;6.05;;;16.30;99.90;;;;;;6251448;22;20153;-84
2023/10/09 15:47:55;;;;;;;9.77;5.38;;;16.30;99.90;;;;;;6252316;22;20167;-84
2023/10/09 15:50:25;;;;;;;11.30;5.97;;;16.30;99.90;;;;;;6251515;22;20181;-84
2023/10/09 15:52:54;;;;;;;11.82;5.75;;;16.20;99.90;;;;;;6252306;22;20537;-84
2023/10/09 15:55:24;;;;;;;11.88;6.10;;;16.20;99.90;;;;;;6252270;22;20149;-84
2023/10/09 15:57:52;;;;;;;11.45;6.30;;;16.20;99.90;;;;;;6252510;22;20161;-85
2023/10/09 16:00:18;;;;;;;10.77;6.15;;;16.10;99.90;;;;;;6251528;22;20217;-85
2023/10/09 16:02:52;;;;;;;7.50;5.93;;;16.10;99.90;;;;;;6251794;22;20184;-84
2023/10/09 16:15:10;;;;;;;6.95;5.63;;;15.90;99.90;;;;;;5858897;23;20552;-84
2023/10/09 16:17:37;;;;;;;8.45;6.25;;;15.80;99.90;;;;;;6162479;23;20174;-84
2023/10/09 16:20:05;;;;;;;12.85;6.68;;;15.80;99.90;;;;;;6245588;22;20181;-83
2023/10/09 16:22:32;;;;;;;9.18;8.20;;;15.80;99.90;;;;;;6255329;22;20239;-83
2023/10/09 16:25:01;;;;;;;17.45;14.32;;;15.70;99.90;;;;;;6252507;22;20164;-83
2023/10/09 16:27:27;;;;;;;13.05;7.07;;;15.70;99.90;;;;;;6253620;22;20168;-83
2023/10/09 16:29:53;;;;;;;11.93;8.73;;;15.70;99.90;;;;;;6251798;22;20188;-83
2023/10/09 16:32:21;;;;;;;13.02;9.65;;;15.70;99.90;;;;;;6252779;22;20192;-83
2023/10/09 16:34:49;;;;;;;11.18;6.95;;;15.70;99.90;;;;;;6279086;22;20161;-83
2023/10/09 16:37:16;;;;;;;12.45;6.10;;;15.60;99.90;;;;;;6252327;22;20232;-83
2023/10/09 16:39:42;;;;;;;13.40;6.40;;;15.60;99.90;;;;;;6253704;22;20615;-83
2023/10/09 16:42:09;;;;;;;10.00;6.40;;;15.50;99.90;;;;;;6253795;22;20288;-83
2023/10/09 16:44:36;;;;;;;13.32;6.35;;;15.50;99.90;;;;;;6253550;22;20602;-83
2023/10/09 16:47:05;;;;;;;8.95;6.10;;;15.40;99.90;;;;;;6279377;22;20180;-83
2023/10/09 16:49:34;;;;;;;12.68;6.20;;;15.40;99.90;;;;;;6253084;22;20203;-84
2023/10/09 16:51:59;;;;;;;9.43;6.95;;;15.40;99.90;;;;;;6252451;22;20181;-85